Bremerton, WA

9:35 AM PDT on October 02, 2014 (GMT -0700)
Renton Municipal | Change Station
CLOSE
Current Station
Airport
Location: Renton,
Elevation: 30 ft
Nearby Weather Stations

Elev 30 ft 47.49 °N, 122.22 °W | Updated 42 minutes ago

Clear
Clear
53 °F
Feels Like 53 °F
N
0
Wind Variable Wind from North

Today
High -- | Low -- °F
--% Chance of Precip.
Yesterday
High -- | Low -- °F
Precip. -- in
7:11 AM 6:47 PM
First Quarter, 60% visible
Pressure 30.30 in
Visibility 7.0 miles
Clouds Clear
Dew Point 50 °F
Humidity 89%
Rainfall 0.00 in
Snow Depth 0 in , 0 in , 0 in
UV 1 out of 12
Pollen 1.30 out of 12
Air Quality Not available.
Flu Activity Not available.
METAR KRNT 021553Z 00000KT 7SM CLR 12/10 A3028 RMK AO2 SLP260 T01170100

More Conditions Fewer Conditions

Pressure 30.30 in
Visibility 7.0 miles
Clouds Clear
Dew Point 50 °F
Humidity 89%
Rainfall 0.00 in
Snow Depth 0 in , 0 in , 0 in
UV 1 out of 12
Pollen 1.30 out of 12
Air Quality Not available.
Flu Activity Not available.
METAR KRNT 021553Z 00000KT 7SM CLR 12/10 A3028 RMK AO2 SLP260 T01170100

More Conditions Fewer Conditions

10-Day Weather Forecast

Almanac

Astronomy

Oct. 02, 2014 Rise Set
Actual Time 7:11 AM PDT 6:47 PM PDT
Civil Twilight 6:40 AM PDT 7:18 PM PDT
Nautical Twilight 6:04 AM PDT 7:53 PM PDT
Astronomical Twilight 5:28 AM PDT 8:30 PM PDT
Moon 3:20 PM PDT 12:10 AM PDT
Length of Visible Light 12h 37m
Length of Day
11h 36m
Tomorrow will be 3m 24s shorter.
First Quarter, 60% of the Moon is Illuminated
Today
First Quarter
Oct 8
Full
Oct 15
Last Quarter
Oct 23
New
Oct 30
First Quarter

Today's Extremes

State Highs State Lows

Community

WunderPhotos

Upload Photos

1,758,294 photos uploaded!

WunderBlogs® & News

Nearby

Snow Depth

Station Depth Elevation
Rainy Pass 0 in 4780 ft
Park Creek Ridge 0 in 4600 ft
Pope Ridge 0 in 3540 ft
Sasse Ridge 0 in 4200 ft
Wells Creek 0 in 4200 ft

Earthquake Activity

City Distance Mag. Time & Date
No recent earthquake activity has been reported nearby.
Minimum magnitude displayed is 2.5.

Coastal Water Temperatures

Place Temperature
Port Townsend, WA 52.0 °F
Seattle, WA 55.0 °F
Friday Harbor, WA 51.1 °F
Tacoma, WA 55.0 °F

Nearby Weather Stations